sensor_id;sensor_type;location;lat;lon;timestamp;pressure;altitude;pressure_sealevel;temperature;humidity
71344;BME280;59146;43.850;25.948;2024-03-02T00:00:42;100820.56;;;7.38;100.00
71344;BME280;59146;43.850;25.948;2024-03-02T00:03:08;100819.72;;;7.38;100.00
71344;BME280;59146;43.850;25.948;2024-03-02T00:05:35;100911.38;;;7.83;100.00
71344;BME280;59146;43.850;25.948;2024-03-02T00:08:00;100881.47;;;7.73;100.00
71344;BME280;59146;43.850;25.948;2024-03-02T00:10:38;100880.72;;;7.69;100.00
71344;BME280;59146;43.850;25.948;2024-03-02T00:13:08;100856.91;;;7.60;100.00
71344;BME280;59146;43.850;25.948;2024-03-02T00:18:33;100833.09;;;7.29;100.00
71344;BME280;59146;43.850;25.948;2024-03-02T00:21:00;100824.97;;;7.16;100.00
71344;BME280;59146;43.850;25.948;2024-03-02T00:23:30;100838.31;;;7.29;100.00
71344;BME280;59146;43.850;25.948;2024-03-02T00:25:56;100898.88;;;7.51;100.00
71344;BME280;59146;43.850;25.948;2024-03-02T00:28:33;100817.78;;;7.22;100.00
71344;BME280;59146;43.850;25.948;2024-03-02T00:33:30;100895.75;;;7.43;100.00
71344;BME280;59146;43.850;25.948;2024-03-02T00:35:56;100894.59;;;7.50;100.00
71344;BME280;59146;43.850;25.948;2024-03-02T00:38:22;100820.13;;;7.29;100.00
71344;BME280;59146;43.850;25.948;2024-03-02T00:40:48;100890.28;;;7.69;100.00
71344;BME280;59146;43.850;25.948;2024-03-02T00:43:45;100805.78;;;7.18;100.00
71344;BME280;59146;43.850;25.948;2024-03-02T00:46:15;100875.88;;;7.62;100.00
71344;BME280;59146;43.850;25.948;2024-03-02T00:51:20;100837.91;;;7.38;100.00
71344;BME280;59146;43.850;25.948;2024-03-02T00:53:45;100867.16;;;7.43;100.00
71344;BME280;59146;43.850;25.948;2024-03-02T00:56:11;100839.28;;;7.26;100.00
71344;BME280;59146;43.850;25.948;2024-03-02T00:58:39;100836.28;;;7.35;100.00
71344;BME280;59146;43.850;25.948;2024-03-02T01:01:05;100855.06;;;7.42;100.00
71344;BME280;59146;43.850;25.948;2024-03-02T01:03:32;100822.84;;;7.04;100.00
71344;BME280;59146;43.850;25.948;2024-03-02T01:05:58;100791.25;;;6.94;100.00
71344;BME280;59146;43.850;25.948;2024-03-02T01:08:23;100860.75;;;7.30;100.00
71344;BME280;59146;43.850;25.948;2024-03-02T01:10:49;100824.41;;;7.08;100.00
71344;BME280;59146;43.850;25.948;2024-03-02T01:13:14;100795.56;;;6.94;100.00
71344;BME280;59146;43.850;25.948;2024-03-02T01:15:40;100830.78;;;7.01;100.00
71344;BME280;59146;43.850;25.948;2024-03-02T01:18:05;100798.16;;;6.74;100.00
71344;BME280;59146;43.850;25.948;2024-03-02T01:20:31;100870.22;;;7.10;100.00
71344;BME280;59146;43.850;25.948;2024-03-02T01:22:57;100781.03;;;6.68;100.00
71344;BME280;59146;43.850;25.948;2024-03-02T01:25:22;100844.13;;;7.13;100.00
71344;BME280;59146;43.850;25.948;2024-03-02T01:27:47;100777.38;;;6.74;100.00
71344;BME280;59146;43.850;25.948;2024-03-02T01:30:13;100752.63;;;6.65;100.00
71344;BME280;59146;43.850;25.948;2024-03-02T01:32:39;100863.44;;;7.06;100.00
71344;BME280;59146;43.850;25.948;2024-03-02T01:35:05;100758.06;;;6.59;100.00
71344;BME280;59146;43.850;25.948;2024-03-02T01:37:32;100819.03;;;7.12;100.00
71344;BME280;59146;43.850;25.948;2024-03-02T01:39:57;100843.28;;;7.33;100.00
71344;BME280;59146;43.850;25.948;2024-03-02T01:42:23;100764.84;;;6.83;100.00
71344;BME280;59146;43.850;25.948;2024-03-02T01:44:48;100805.88;;;7.17;100.00
71344;BME280;59146;43.850;25.948;2024-03-02T01:47:14;100773.31;;;7.08;100.00
71344;BME280;59146;43.850;25.948;2024-03-02T01:49:39;100813.13;;;7.29;100.00
71344;BME280;59146;43.850;25.948;2024-03-02T01:52:06;100815.19;;;7.22;100.00
71344;BME280;59146;43.850;25.948;2024-03-02T01:54:32;100719.44;;;6.52;100.00
71344;BME280;59146;43.850;25.948;2024-03-02T01:56:58;100808.94;;;7.27;100.00
71344;BME280;59146;43.850;25.948;2024-03-02T01:59:23;100798.34;;;7.11;100.00
71344;BME280;59146;43.850;25.948;2024-03-02T02:01:49;100790.88;;;7.03;100.00
71344;BME280;59146;43.850;25.948;2024-03-02T02:04:14;100819.03;;;7.12;100.00
71344;BME280;59146;43.850;25.948;2024-03-02T02:06:40;100770.47;;;6.94;100.00
71344;BME280;59146;43.850;25.948;2024-03-02T02:09:06;100809.91;;;7.24;100.00
71344;BME280;59146;43.850;25.948;2024-03-02T02:11:33;100713.69;;;6.65;100.00
71344;BME280;59146;43.850;25.948;2024-03-02T02:13:59;100751.09;;;6.81;100.00
71344;BME280;59146;43.850;25.948;2024-03-02T02:16:24;100811.13;;;7.15;100.00
71344;BME280;59146;43.850;25.948;2024-03-02T02:18:50;100735.00;;;6.73;100.00
71344;BME280;59146;43.850;25.948;2024-03-02T02:21:15;100723.56;;;6.57;100.00
71344;BME280;59146;43.850;25.948;2024-03-02T02:23:41;100746.75;;;6.82;100.00
71344;BME280;59146;43.850;25.948;2024-03-02T02:26:11;100752.28;;;6.74;100.00
71344;BME280;59146;43.850;25.948;2024-03-02T02:28:37;100813.31;;;7.04;100.00
71344;BME280;59146;43.850;25.948;2024-03-02T02:31:02;100801.72;;;7.13;100.00
71344;BME280;59146;43.850;25.948;2024-03-02T02:33:28;100814.25;;;7.23;100.00
71344;BME280;59146;43.850;25.948;2024-03-02T02:35:54;100779.19;;;6.72;100.00
71344;BME280;59146;43.850;25.948;2024-03-02T02:38:19;100804.22;;;6.94;100.00
71344;BME280;59146;43.850;25.948;2024-03-02T02:40:45;100781.88;;;6.90;100.00
71344;BME280;59146;43.850;25.948;2024-03-02T02:43:10;100753.94;;;6.75;100.00
71344;BME280;59146;43.850;25.948;2024-03-02T02:45:36;100822.16;;;7.20;100.00
71344;BME280;59146;43.850;25.948;2024-03-02T02:48:01;100763.69;;;6.70;100.00
71344;BME280;59146;43.850;25.948;2024-03-02T02:50:28;100785.81;;;6.79;100.00
71344;BME280;59146;43.850;25.948;2024-03-02T02:52:53;100784.59;;;6.87;100.00
71344;BME280;59146;43.850;25.948;2024-03-02T02:55:19;100783.69;;;6.88;100.00
71344;BME280;59146;43.850;25.948;2024-03-02T02:57:44;100800.66;;;6.97;100.00
71344;BME280;59146;43.850;25.948;2024-03-02T03:00:13;100806.81;;;6.94;100.00
71344;BME280;59146;43.850;25.948;2024-03-02T03:02:45;100803.31;;;6.95;100.00
71344;BME280;59146;43.850;25.948;2024-03-02T03:05:12;100767.84;;;6.74;100.00
71344;BME280;59146;43.850;25.948;2024-03-02T03:07:39;100774.28;;;6.64;100.00
71344;BME280;59146;43.850;25.948;2024-03-02T03:10:05;100843.09;;;7.17;100.00
71344;BME280;59146;43.850;25.948;2024-03-02T03:12:32;100761.09;;;6.70;100.00
71344;BME280;59146;43.850;25.948;2024-03-02T03:14:57;100848.38;;;7.36;100.00
71344;BME280;59146;43.850;25.948;2024-03-02T03:17:23;100772.03;;;6.77;100.00
71344;BME280;59146;43.850;25.948;2024-03-02T03:19:49;100842.28;;;7.37;100.00
71344;BME280;59146;43.850;25.948;2024-03-02T03:22:22;100827.25;;;7.23;100.00
71344;BME280;59146;43.850;25.948;2024-03-02T03:24:47;100707.81;;;6.62;100.00
71344;BME280;59146;43.850;25.948;2024-03-02T03:27:13;100813.56;;;6.98;100.00
71344;BME280;59146;43.850;25.948;2024-03-02T03:29:38;100822.31;;;7.17;100.00
71344;BME280;59146;43.850;25.948;2024-03-02T03:32:04;100784.81;;;7.03;100.00
71344;BME280;59146;43.850;25.948;2024-03-02T03:34:34;100759.63;;;7.05;100.00
71344;BME280;59146;43.850;25.948;2024-03-02T03:37:00;100797.38;;;7.13;100.00
71344;BME280;59146;43.850;25.948;2024-03-02T03:39:25;100809.06;;;7.23;100.00
71344;BME280;59146;43.850;25.948;2024-03-02T03:41:51;100772.94;;;6.97;100.00
71344;BME280;59146;43.850;25.948;2024-03-02T03:44:16;100847.06;;;7.26;100.00
71344;BME280;59146;43.850;25.948;2024-03-02T03:46:41;100806.84;;;7.14;100.00
71344;BME280;59146;43.850;25.948;2024-03-02T03:49:07;100778.75;;;6.82;100.00
71344;BME280;59146;43.850;25.948;2024-03-02T03:51:33;100787.72;;;6.95;100.00
71344;BME280;59146;43.850;25.948;2024-03-02T03:53:59;100835.41;;;7.14;100.00
71344;BME280;59146;43.850;25.948;2024-03-02T03:56:24;100814.38;;;7.20;100.00
71344;BME280;59146;43.850;25.948;2024-03-02T03:58:50;100759.41;;;6.89;100.00
71344;BME280;59146;43.850;25.948;2024-03-02T04:01:15;100765.63;;;6.85;100.00
71344;BME280;59146;43.850;25.948;2024-03-02T04:03:41;100785.00;;;7.18;100.00
71344;BME280;59146;43.850;25.948;2024-03-02T04:06:06;100820.50;;;7.40;100.00
71344;BME280;59146;43.850;25.948;2024-03-02T04:08:32;100828.25;;;7.41;100.00
71344;BME280;59146;43.850;25.948;2024-03-02T04:10:57;100789.44;;;7.37;100.00
71344;BME280;59146;43.850;25.948;2024-03-02T04:13:23;100814.06;;;7.48;100.00
71344;BME280;59146;43.850;25.948;2024-03-02T04:15:48;100833.81;;;7.72;100.00
71344;BME280;59146;43.850;25.948;2024-03-02T04:18:13;100821.53;;;7.56;100.00
71344;BME280;59146;43.850;25.948;2024-03-02T04:20:39;100732.53;;;7.10;100.00
71344;BME280;59146;43.850;25.948;2024-03-02T04:23:04;100787.34;;;7.45;100.00
71344;BME280;59146;43.850;25.948;2024-03-02T04:25:30;100832.69;;;7.78;100.00
71344;BME280;59146;43.850;25.948;2024-03-02T04:27:55;100839.00;;;7.52;100.00
71344;BME280;59146;43.850;25.948;2024-03-02T04:30:21;100763.59;;;7.13;100.00
71344;BME280;59146;43.850;25.948;2024-03-02T04:32:46;100822.13;;;7.62;100.00
71344;BME280;59146;43.850;25.948;2024-03-02T04:35:12;100848.88;;;7.84;100.00
71344;BME280;59146;43.850;25.948;2024-03-02T04:37:38;100857.22;;;7.72;100.00
71344;BME280;59146;43.850;25.948;2024-03-02T04:40:04;100797.38;;;7.13;100.00
71344;BME280;59146;43.850;25.948;2024-03-02T04:42:33;100850.13;;;7.56;100.00
71344;BME280;59146;43.850;25.948;2024-03-02T04:44:59;100846.75;;;7.74;100.00
71344;BME280;59146;43.850;25.948;2024-03-02T04:47:24;100808.41;;;7.59;100.00
71344;BME280;59146;43.850;25.948;2024-03-02T04:49:49;100761.13;;;7.31;100.00
71344;BME280;59146;43.850;25.948;2024-03-02T04:52:16;100817.63;;;7.46;100.00
71344;BME280;59146;43.850;25.948;2024-03-02T04:54:41;100853.09;;;7.87;100.00
71344;BME280;59146;43.850;25.948;2024-03-02T04:57:25;100694.38;;;6.92;100.00
71344;BME280;59146;43.850;25.948;2024-03-02T04:59:51;100828.06;;;7.84;100.00
71344;BME280;59146;43.850;25.948;2024-03-02T05:02:16;100768.38;;;7.43;100.00
71344;BME280;59146;43.850;25.948;2024-03-02T05:04:41;100860.13;;;7.85;100.00
71344;BME280;59146;43.850;25.948;2024-03-02T05:07:07;100826.66;;;7.57;100.00
71344;BME280;59146;43.850;25.948;2024-03-02T05:09:32;100808.03;;;7.48;100.00
71344;BME280;59146;43.850;25.948;2024-03-02T05:11:58;100841.19;;;7.81;100.00
71344;BME280;59146;43.850;25.948;2024-03-02T05:14:55;100759.94;;;7.38;100.00
71344;BME280;59146;43.850;25.948;2024-03-02T05:17:21;100842.91;;;7.82;100.00
71344;BME280;59146;43.850;25.948;2024-03-02T05:19:46;100819.19;;;7.70;100.00
71344;BME280;59146;43.850;25.948;2024-03-02T05:22:12;100824.00;;;7.59;100.00
71344;BME280;59146;43.850;25.948;2024-03-02T05:24:37;100870.38;;;8.08;100.00
71344;BME280;59146;43.850;25.948;2024-03-02T05:27:02;100866.22;;;8.04;100.00
71344;BME280;59146;43.850;25.948;2024-03-02T05:29:28;100870.50;;;8.05;100.00
71344;BME280;59146;43.850;25.948;2024-03-02T05:31:53;100727.06;;;7.37;100.00
71344;BME280;59146;43.850;25.948;2024-03-02T05:34:19;100862.97;;;8.18;100.00
71344;BME280;59146;43.850;25.948;2024-03-02T05:36:44;100846.69;;;7.94;100.00
71344;BME280;59146;43.850;25.948;2024-03-02T05:39:09;100848.47;;;7.93;100.00
71344;BME280;59146;43.850;25.948;2024-03-02T05:41:35;100880.84;;;8.27;100.00
71344;BME280;59146;43.850;25.948;2024-03-02T05:44:01;100840.81;;;8.09;100.00
71344;BME280;59146;43.850;25.948;2024-03-02T05:46:27;100840.13;;;8.06;100.00
71344;BME280;59146;43.850;25.948;2024-03-02T05:48:53;100803.19;;;7.79;100.00
71344;BME280;59146;43.850;25.948;2024-03-02T05:51:18;100878.16;;;8.08;100.00
71344;BME280;59146;43.850;25.948;2024-03-02T05:53:43;100890.44;;;8.25;100.00
71344;BME280;59146;43.850;25.948;2024-03-02T05:56:09;100881.19;;;8.18;100.00
71344;BME280;59146;43.850;25.948;2024-03-02T05:58:34;100822.44;;;7.75;100.00
71344;BME280;59146;43.850;25.948;2024-03-02T06:01:19;100886.38;;;7.99;100.00
71344;BME280;59146;43.850;25.948;2024-03-02T06:03:44;100787.78;;;7.54;100.00
71344;BME280;59146;43.850;25.948;2024-03-02T06:06:10;100776.13;;;7.44;100.00
71344;BME280;59146;43.850;25.948;2024-03-02T06:08:35;100873.94;;;8.06;100.00
71344;BME280;59146;43.850;25.948;2024-03-02T06:11:01;100778.91;;;7.40;100.00
71344;BME280;59146;43.850;25.948;2024-03-02T06:13:26;100879.34;;;8.01;100.00
71344;BME280;59146;43.850;25.948;2024-03-02T06:15:52;100814.44;;;7.59;100.00
71344;BME280;59146;43.850;25.948;2024-03-02T06:18:18;100814.09;;;7.67;100.00
71344;BME280;59146;43.850;25.948;2024-03-02T06:20:43;100878.69;;;7.96;100.00
71344;BME280;59146;43.850;25.948;2024-03-02T06:23:09;100863.78;;;7.81;100.00
71344;BME280;59146;43.850;25.948;2024-03-02T06:25:34;100823.72;;;7.85;100.00
71344;BME280;59146;43.850;25.948;2024-03-02T06:28:00;100860.94;;;8.24;100.00
71344;BME280;59146;43.850;25.948;2024-03-02T06:30:25;100800.44;;;7.82;100.00
71344;BME280;59146;43.850;25.948;2024-03-02T06:32:51;100878.78;;;8.13;100.00
71344;BME280;59146;43.850;25.948;2024-03-02T06:35:16;100841.50;;;7.94;100.00
71344;BME280;59146;43.850;25.948;2024-03-02T06:37:41;100885.31;;;8.03;100.00
71344;BME280;59146;43.850;25.948;2024-03-02T06:40:07;100795.91;;;7.67;100.00
71344;BME280;59146;43.850;25.948;2024-03-02T06:42:34;100813.91;;;7.71;100.00
71344;BME280;59146;43.850;25.948;2024-03-02T06:45:00;100771.72;;;7.65;100.00
71344;BME280;59146;43.850;25.948;2024-03-02T06:47:25;100864.72;;;8.17;100.00
71344;BME280;59146;43.850;25.948;2024-03-02T06:49:50;100864.16;;;8.11;100.00
71344;BME280;59146;43.850;25.948;2024-03-02T06:52:16;100874.91;;;8.03;100.00
71344;BME280;59146;43.850;25.948;2024-03-02T06:54:42;100862.00;;;8.01;100.00
71344;BME280;59146;43.850;25.948;2024-03-02T06:57:07;100901.41;;;8.13;100.00
71344;BME280;59146;43.850;25.948;2024-03-02T06:59:33;100875.78;;;8.22;100.00
71344;BME280;59146;43.850;25.948;2024-03-02T07:01:59;100796.69;;;7.69;100.00
71344;BME280;59146;43.850;25.948;2024-03-02T07:04:24;100903.06;;;8.14;100.00
71344;BME280;59146;43.850;25.948;2024-03-02T07:06:49;100844.47;;;7.66;100.00
71344;BME280;59146;43.850;25.948;2024-03-02T07:09:16;100863.63;;;7.84;100.00
71344;BME280;59146;43.850;25.948;2024-03-02T07:11:42;100892.28;;;8.02;100.00
71344;BME280;59146;43.850;25.948;2024-03-02T07:14:07;100897.28;;;8.07;100.00
71344;BME280;59146;43.850;25.948;2024-03-02T07:16:33;100894.06;;;8.02;100.00
71344;BME280;59146;43.850;25.948;2024-03-02T07:19:00;100716.72;;;6.96;100.00
71344;BME280;59146;43.850;25.948;2024-03-02T07:21:27;100848.28;;;7.78;100.00
71344;BME280;59146;43.850;25.948;2024-03-02T07:23:52;100818.38;;;7.88;100.00
71344;BME280;59146;43.850;25.948;2024-03-02T07:26:18;100853.06;;;8.27;100.00
71344;BME280;59146;43.850;25.948;2024-03-02T07:28:47;100860.91;;;8.44;100.00
71344;BME280;59146;43.850;25.948;2024-03-02T07:31:13;100813.25;;;8.25;100.00
71344;BME280;59146;43.850;25.948;2024-03-02T07:33:39;100835.25;;;8.37;100.00
71344;BME280;59146;43.850;25.948;2024-03-02T07:36:04;100765.38;;;8.09;100.00
71344;BME280;59146;43.850;25.948;2024-03-02T07:38:31;100791.25;;;8.12;100.00
71344;BME280;59146;43.850;25.948;2024-03-02T07:40:57;100863.28;;;8.67;100.00
71344;BME280;59146;43.850;25.948;2024-03-02T07:43:24;100797.09;;;8.36;100.00
71344;BME280;59146;43.850;25.948;2024-03-02T07:45:50;100850.75;;;8.75;100.00
71344;BME280;59146;43.850;25.948;2024-03-02T07:48:15;100831.50;;;8.42;100.00
71344;BME280;59146;43.850;25.948;2024-03-02T07:50:41;100864.00;;;8.71;100.00
71344;BME280;59146;43.850;25.948;2024-03-02T07:53:07;100866.50;;;8.91;100.00
71344;BME280;59146;43.850;25.948;2024-03-02T07:55:33;100816.84;;;8.77;100.00
71344;BME280;59146;43.850;25.948;2024-03-02T07:58:00;100838.44;;;8.79;100.00
71344;BME280;59146;43.850;25.948;2024-03-02T08:00:25;100861.47;;;9.05;100.00
71344;BME280;59146;43.850;25.948;2024-03-02T08:02:51;100809.38;;;8.69;100.00
71344;BME280;59146;43.850;25.948;2024-03-02T08:05:17;100858.81;;;8.71;100.00
71344;BME280;59146;43.850;25.948;2024-03-02T08:07:45;100886.66;;;8.88;100.00
71344;BME280;59146;43.850;25.948;2024-03-02T08:10:11;100847.03;;;8.81;100.00
71344;BME280;59146;43.850;25.948;2024-03-02T08:12:36;100842.94;;;8.94;100.00
71344;BME280;59146;43.850;25.948;2024-03-02T08:15:02;100864.72;;;9.27;100.00
71344;BME280;59146;43.850;25.948;2024-03-02T08:17:27;100796.25;;;8.90;100.00
71344;BME280;59146;43.850;25.948;2024-03-02T08:19:53;100879.66;;;9.41;100.00
71344;BME280;59146;43.850;25.948;2024-03-02T08:22:19;100850.22;;;9.56;99.48
71344;BME280;59146;43.850;25.948;2024-03-02T08:24:45;100858.50;;;9.64;97.82
71344;BME280;59146;43.850;25.948;2024-03-02T08:27:11;100860.19;;;9.65;97.39
71344;BME280;59146;43.850;25.948;2024-03-02T08:29:37;100875.75;;;9.67;97.88
71344;BME280;59146;43.850;25.948;2024-03-02T08:32:03;100850.84;;;9.61;98.28
71344;BME280;59146;43.850;25.948;2024-03-02T08:34:28;100861.91;;;9.99;95.63
71344;BME280;59146;43.850;25.948;2024-03-02T08:36:54;100873.94;;;10.01;94.79
71344;BME280;59146;43.850;25.948;2024-03-02T08:39:20;100794.25;;;9.29;95.92
71344;BME280;59146;43.850;25.948;2024-03-02T08:41:46;100860.34;;;9.45;97.96
71344;BME280;59146;43.850;25.948;2024-03-02T08:44:13;100755.16;;;9.12;97.77
71344;BME280;59146;43.850;25.948;2024-03-02T08:46:39;100753.63;;;9.42;95.71
71344;BME280;59146;43.850;25.948;2024-03-02T08:49:05;100826.28;;;9.82;95.28
71344;BME280;59146;43.850;25.948;2024-03-02T08:51:31;100825.19;;;9.86;95.37
71344;BME280;59146;43.850;25.948;2024-03-02T08:53:57;100864.19;;;10.05;95.13
71344;BME280;59146;43.850;25.948;2024-03-02T08:56:23;100816.44;;;9.70;94.88
71344;BME280;59146;43.850;25.948;2024-03-02T08:58:50;100853.34;;;10.29;94.56
71344;BME280;59146;43.850;25.948;2024-03-02T09:01:16;100839.19;;;10.18;93.37
71344;BME280;59146;43.850;25.948;2024-03-02T09:03:42;100787.69;;;9.72;94.82
71344;BME280;59146;43.850;25.948;2024-03-02T09:06:11;100847.53;;;10.40;94.17
71344;BME280;59146;43.850;25.948;2024-03-02T09:08:37;100783.84;;;10.43;91.66
71344;BME280;59146;43.850;25.948;2024-03-02T09:11:04;100833.72;;;10.85;90.06
71344;BME280;59146;43.850;25.948;2024-03-02T09:13:31;100848.19;;;10.75;89.91
71344;BME280;59146;43.850;25.948;2024-03-02T09:15:56;100843.09;;;10.58;90.96
71344;BME280;59146;43.850;25.948;2024-03-02T09:18:22;100817.53;;;10.31;92.30
71344;BME280;59146;43.850;25.948;2024-03-02T09:20:47;100799.75;;;10.22;92.85
71344;BME280;59146;43.850;25.948;2024-03-02T09:23:13;100795.13;;;10.59;90.75
71344;BME280;59146;43.850;25.948;2024-03-02T09:25:38;100839.03;;;11.13;88.67
71344;BME280;59146;43.850;25.948;2024-03-02T09:28:04;100820.66;;;10.85;87.82
71344;BME280;59146;43.850;25.948;2024-03-02T09:30:29;100824.81;;;11.03;88.53
71344;BME280;59146;43.850;25.948;2024-03-02T09:32:54;100709.56;;;10.62;86.06
71344;BME280;59146;43.850;25.948;2024-03-02T09:35:20;100804.34;;;11.25;85.27
71344;BME280;59146;43.850;25.948;2024-03-02T09:37:47;100808.13;;;11.05;85.47
71344;BME280;59146;43.850;25.948;2024-03-02T09:40:13;100818.88;;;11.15;85.08
71344;BME280;59146;43.850;25.948;2024-03-02T09:42:40;100822.06;;;11.20;84.15
71344;BME280;59146;43.850;25.948;2024-03-02T09:45:06;100874.28;;;11.51;83.97
71344;BME280;59146;43.850;25.948;2024-03-02T09:47:32;100819.66;;;11.31;83.26
71344;BME280;59146;43.850;25.948;2024-03-02T09:49:58;100789.63;;;11.38;83.13
71344;BME280;59146;43.850;25.948;2024-03-02T09:52:23;100866.53;;;11.50;83.59
71344;BME280;59146;43.850;25.948;2024-03-02T09:54:49;100828.63;;;11.27;84.26
71344;BME280;59146;43.850;25.948;2024-03-02T09:57:15;100839.22;;;11.40;83.30
71344;BME280;59146;43.850;25.948;2024-03-02T09:59:40;100860.91;;;11.71;82.77
71344;BME280;59146;43.850;25.948;2024-03-02T10:02:06;100800.59;;;11.29;82.29
71344;BME280;59146;43.850;25.948;2024-03-02T10:04:33;100797.22;;;11.13;83.94
71344;BME280;59146;43.850;25.948;2024-03-02T10:09:39;100845.13;;;11.87;81.78
71344;BME280;59146;43.850;25.948;2024-03-02T10:12:07;100859.47;;;11.66;81.93
71344;BME280;59146;43.850;25.948;2024-03-02T10:14:41;100807.09;;;11.08;83.59
71344;BME280;59146;43.850;25.948;2024-03-02T10:17:08;100831.84;;;11.16;84.23
71344;BME280;59146;43.850;25.948;2024-03-02T10:19:35;100875.09;;;11.67;83.42
71344;BME280;59146;43.850;25.948;2024-03-02T10:22:04;100843.81;;;11.50;82.78
71344;BME280;59146;43.850;25.948;2024-03-02T10:24:42;100864.09;;;11.76;81.51
71344;BME280;59146;43.850;25.948;2024-03-02T10:29:41;100870.72;;;11.82;82.12
71344;BME280;59146;43.850;25.948;2024-03-02T10:32:10;100817.84;;;11.91;81.00
71344;BME280;59146;43.850;25.948;2024-03-02T10:34:37;100759.38;;;11.62;79.50
71344;BME280;59146;43.850;25.948;2024-03-02T10:37:03;100839.41;;;12.09;78.43
71344;BME280;59146;43.850;25.948;2024-03-02T10:39:29;100843.34;;;11.87;80.74
71344;BME280;59146;43.850;25.948;2024-03-02T10:42:00;100848.78;;;12.27;79.36
71344;BME280;59146;43.850;25.948;2024-03-02T10:44:28;100803.72;;;12.08;77.80
71344;BME280;59146;43.850;25.948;2024-03-02T10:46:55;100806.72;;;12.02;79.17
71344;BME280;59146;43.850;25.948;2024-03-02T10:49:22;100857.16;;;12.32;78.12
71344;BME280;59146;43.850;25.948;2024-03-02T10:51:48;100827.94;;;12.25;77.93
71344;BME280;59146;43.850;25.948;2024-03-02T10:54:13;100849.25;;;12.05;79.06
71344;BME280;59146;43.850;25.948;2024-03-02T10:56:41;100847.47;;;12.20;80.40
71344;BME280;59146;43.850;25.948;2024-03-02T11:01:55;100845.56;;;12.50;77.39
71344;BME280;59146;43.850;25.948;2024-03-02T11:04:21;100820.50;;;12.46;77.80
71344;BME280;59146;43.850;25.948;2024-03-02T11:06:50;100827.75;;;12.14;78.83
71344;BME280;59146;43.850;25.948;2024-03-02T11:09:19;100833.44;;;12.21;79.93
71344;BME280;59146;43.850;25.948;2024-03-02T11:11:51;100773.50;;;11.88;79.03
71344;BME280;59146;43.850;25.948;2024-03-02T11:14:24;100807.84;;;11.98;78.99
71344;BME280;59146;43.850;25.948;2024-03-02T11:16:51;100797.63;;;11.93;78.41
71344;BME280;59146;43.850;25.948;2024-03-02T11:19:18;100829.88;;;11.79;80.16
71344;BME280;59146;43.850;25.948;2024-03-02T11:21:44;100767.84;;;11.38;80.78
71344;BME280;59146;43.850;25.948;2024-03-02T11:26:53;100788.94;;;11.78;80.11
71344;BME280;59146;43.850;25.948;2024-03-02T11:32:05;100797.91;;;11.74;80.41
71344;BME280;59146;43.850;25.948;2024-03-02T11:34:33;100807.84;;;11.98;79.98
71344;BME280;59146;43.850;25.948;2024-03-02T11:37:01;100822.03;;;11.93;79.67
71344;BME280;59146;43.850;25.948;2024-03-02T11:39:28;100815.09;;;12.07;79.23
71344;BME280;59146;43.850;25.948;2024-03-02T11:41:55;100760.91;;;11.66;79.49
71344;BME280;59146;43.850;25.948;2024-03-02T11:44:21;100757.69;;;11.47;80.72
71344;BME280;59146;43.850;25.948;2024-03-02T11:46:52;100791.19;;;11.70;80.83
71344;BME280;59146;43.850;25.948;2024-03-02T11:49:46;100810.53;;;11.68;81.63
71344;BME280;59146;43.850;25.948;2024-03-02T11:52:13;100810.78;;;11.77;80.72
71344;BME280;59146;43.850;25.948;2024-03-02T11:54:41;100758.09;;;11.69;79.81
71344;BME280;59146;43.850;25.948;2024-03-02T11:57:16;100781.28;;;11.75;80.75
71344;BME280;59146;43.850;25.948;2024-03-02T11:59:42;100796.41;;;11.98;80.58
71344;BME280;59146;43.850;25.948;2024-03-02T12:02:15;100769.28;;;11.57;80.25
71344;BME280;59146;43.850;25.948;2024-03-02T12:04:45;100805.78;;;11.74;81.61
71344;BME280;59146;43.850;25.948;2024-03-02T12:07:12;100741.88;;;11.63;80.35
71344;BME280;59146;43.850;25.948;2024-03-02T12:09:41;100789.41;;;11.85;80.49
71344;BME280;59146;43.850;25.948;2024-03-02T12:12:08;100777.69;;;11.62;80.94
71344;BME280;59146;43.850;25.948;2024-03-02T12:14:37;100795.50;;;12.00;80.45
71344;BME280;59146;43.850;25.948;2024-03-02T12:17:04;100745.63;;;11.31;81.71
71344;BME280;59146;43.850;25.948;2024-03-02T12:19:31;100785.00;;;11.71;81.68
71344;BME280;59146;43.850;25.948;2024-03-02T12:21:58;100791.38;;;11.95;79.91
71344;BME280;59146;43.850;25.948;2024-03-02T12:24:26;100797.50;;;12.09;79.64
71344;BME280;59146;43.850;25.948;2024-03-02T12:26:53;100718.75;;;11.71;78.86
71344;BME280;59146;43.850;25.948;2024-03-02T12:29:21;100736.03;;;11.87;77.87
71344;BME280;59146;43.850;25.948;2024-03-02T12:31:52;100788.09;;;11.92;78.99
71344;BME280;59146;43.850;25.948;2024-03-02T12:34:18;100738.47;;;11.76;79.04
71344;BME280;59146;43.850;25.948;2024-03-02T12:36:46;100796.78;;;12.07;79.10
71344;BME280;59146;43.850;25.948;2024-03-02T12:39:15;100762.38;;;11.98;78.42
71344;BME280;59146;43.850;25.948;2024-03-02T12:41:41;100681.63;;;11.64;77.68
71344;BME280;59146;43.850;25.948;2024-03-02T12:44:07;100686.59;;;11.27;78.41
71344;BME280;59146;43.850;25.948;2024-03-02T12:46:32;100776.38;;;11.55;79.77
71344;BME280;59146;43.850;25.948;2024-03-02T12:48:58;100745.59;;;11.74;78.82
71344;BME280;59146;43.850;25.948;2024-03-02T12:51:30;100732.00;;;11.82;77.73
71344;BME280;59146;43.850;25.948;2024-03-02T12:53:57;100757.72;;;12.04;76.69
71344;BME280;59146;43.850;25.948;2024-03-02T12:56:24;100737.44;;;11.93;76.66
71344;BME280;59146;43.850;25.948;2024-03-02T12:58:58;100747.97;;;11.63;77.68